createdAt,value
2022-10-06T00:02:24.634Z,1.05
2022-10-06T00:04:52.267Z,1.00
2022-10-06T00:07:19.935Z,0.82
2022-10-06T00:09:47.530Z,1.00
2022-10-06T00:12:16.556Z,0.65
2022-10-06T00:14:44.196Z,0.80
2022-10-06T00:17:11.807Z,1.10
2022-10-06T00:19:39.369Z,0.68
2022-10-06T00:22:06.941Z,0.77
2022-10-06T00:24:35.083Z,0.98
2022-10-06T00:27:02.817Z,1.13
2022-10-06T00:29:31.725Z,0.47
2022-10-06T00:31:59.332Z,1.00
2022-10-06T00:34:27.825Z,0.85
2022-10-06T00:36:55.376Z,1.13
2022-10-06T00:39:22.963Z,0.52
2022-10-06T00:41:50.629Z,1.10
2022-10-06T00:44:18.189Z,1.30
2022-10-06T00:46:49.260Z,0.90
2022-10-06T00:49:18.449Z,0.80
2022-10-06T00:51:48.651Z,0.80
2022-10-06T00:54:17.593Z,0.60
2022-10-06T00:56:45.467Z,0.80
2022-10-06T00:59:13.826Z,0.98
2022-10-06T01:01:43.940Z,0.90
2022-10-06T01:04:14.730Z,0.90
2022-10-06T01:06:45.177Z,0.90
2022-10-06T01:09:13.781Z,1.05
2022-10-06T01:11:41.389Z,0.63
2022-10-06T01:14:08.999Z,1.05
2022-10-06T01:16:38.945Z,0.82
2022-10-06T01:19:10.987Z,0.95
2022-10-06T01:21:42.528Z,1.38
2022-10-06T01:24:11.645Z,1.38
2022-10-06T01:26:43.309Z,1.33
2022-10-06T01:29:11.214Z,1.13
2022-10-06T01:31:39.636Z,0.93
2022-10-06T01:34:07.511Z,1.13
2022-10-06T01:36:35.164Z,1.00
2022-10-06T01:39:02.864Z,1.42
2022-10-06T01:41:33.946Z,0.98
2022-10-06T01:44:02.668Z,0.80
2022-10-06T01:46:30.533Z,1.70
2022-10-06T01:48:58.249Z,0.80
2022-10-06T01:51:26.247Z,1.30
2022-10-06T01:53:53.844Z,0.82
2022-10-06T01:56:22.998Z,0.80
2022-10-06T01:58:52.549Z,0.90
2022-10-06T02:01:20.458Z,1.17
2022-10-06T02:03:48.085Z,1.17
2022-10-06T02:06:15.734Z,1.20
2022-10-06T02:08:44.807Z,1.20
2022-10-06T02:11:13.184Z,1.10
2022-10-06T02:13:44.354Z,1.50
2022-10-06T02:16:14.189Z,0.90
2022-10-06T02:18:43.186Z,1.05
2022-10-06T02:21:14.555Z,1.48
2022-10-06T02:23:42.204Z,1.20
2022-10-06T02:26:09.830Z,1.02
2022-10-06T02:28:37.580Z,1.95
2022-10-06T02:31:08.388Z,1.23
2022-10-06T02:33:39.902Z,1.35
2022-10-06T02:36:08.640Z,0.98
2022-10-06T02:38:36.295Z,0.88
2022-10-06T02:41:07.788Z,1.40
2022-10-06T02:43:36.449Z,1.58
2022-10-06T02:46:05.442Z,1.33
2022-10-06T02:48:34.872Z,1.23
2022-10-06T02:51:06.946Z,1.25
2022-10-06T02:53:35.085Z,1.05
2022-10-06T02:56:03.298Z,1.48
2022-10-06T02:58:31.768Z,1.55
2022-10-06T03:01:05.039Z,1.20
2022-10-06T03:03:33.163Z,1.38
2022-10-06T03:06:01.245Z,1.20
2022-10-06T03:08:30.540Z,1.05
2022-10-06T03:11:02.140Z,1.70
2022-10-06T03:13:30.280Z,1.02
2022-10-06T03:15:57.972Z,1.42
2022-10-06T03:18:26.193Z,1.45
2022-10-06T03:20:55.013Z,1.63
2022-10-06T03:23:22.672Z,1.48
2022-10-06T03:25:58.717Z,1.40
2022-10-06T03:28:26.909Z,1.52
2022-10-06T03:30:55.108Z,1.80
2022-10-06T03:33:22.992Z,1.55
2022-10-06T03:35:59.193Z,1.65
2022-10-06T03:38:28.123Z,1.25
2022-10-06T03:41:04.021Z,1.75
2022-10-06T03:43:31.674Z,1.35
2022-10-06T03:46:00.861Z,1.60
2022-10-06T03:48:29.897Z,1.63
2022-10-06T03:50:58.340Z,1.50
2022-10-06T03:53:28.331Z,1.13
2022-10-06T03:56:05.226Z,1.50
2022-10-06T03:58:34.536Z,1.73
2022-10-06T04:01:03.193Z,1.45
2022-10-06T04:03:31.530Z,1.25
2022-10-06T04:06:00.321Z,1.70
2022-10-06T04:08:29.226Z,1.50
2022-10-06T04:10:57.291Z,1.63
2022-10-06T04:13:26.431Z,1.90
2022-10-06T04:15:54.299Z,1.30
2022-10-06T04:18:22.193Z,1.60
2022-10-06T04:20:49.821Z,1.70
2022-10-06T04:23:17.431Z,1.80
2022-10-06T04:25:45.135Z,1.63
2022-10-06T04:28:12.917Z,1.25
2022-10-06T04:30:41.872Z,1.40
2022-10-06T04:33:09.610Z,1.42
2022-10-06T04:35:37.303Z,1.70
2022-10-06T04:38:05.048Z,1.42
2022-10-06T04:40:32.756Z,1.48
2022-10-06T04:43:00.454Z,2.05
2022-10-06T04:45:28.026Z,1.45
2022-10-06T04:47:57.307Z,1.27
2022-10-06T04:50:24.893Z,1.42
2022-10-06T04:53:06.799Z,1.40
2022-10-06T04:55:34.412Z,0.95
2022-10-06T04:58:01.997Z,1.08
2022-10-06T05:00:29.757Z,1.38
2022-10-06T05:02:59.697Z,1.60
2022-10-06T05:05:28.137Z,1.88
2022-10-06T05:07:57.219Z,1.50
2022-10-06T05:10:25.154Z,1.92
2022-10-06T05:12:52.814Z,1.88
2022-10-06T05:15:20.575Z,1.95
2022-10-06T05:17:48.361Z,1.33
2022-10-06T05:20:17.966Z,1.85
2022-10-06T05:22:46.322Z,2.35
2022-10-06T05:25:14.245Z,2.00
2022-10-06T05:27:42.135Z,1.70
2022-10-06T05:30:10.438Z,1.50
2022-10-06T05:32:38.451Z,3.05
2022-10-06T05:35:07.833Z,2.03
2022-10-06T05:37:37.492Z,1.58
2022-10-06T05:40:05.424Z,1.60
2022-10-06T05:42:33.089Z,2.67
2022-10-06T05:45:01.084Z,2.55
2022-10-06T05:47:28.988Z,1.77
2022-10-06T05:49:56.703Z,1.90
2022-10-06T05:52:24.445Z,1.75
2022-10-06T05:54:54.519Z,1.80
2022-10-06T05:57:22.396Z,2.42
2022-10-06T05:59:50.022Z,2.30
2022-10-06T06:02:18.686Z,2.88
2022-10-06T06:04:47.356Z,1.73
2022-10-06T06:07:15.032Z,2.10
2022-10-06T06:09:44.819Z,2.00
2022-10-06T06:12:14.341Z,1.67
2022-10-06T06:15:07.174Z,1.48
2022-10-06T06:17:40.153Z,1.65
2022-10-06T06:20:08.264Z,1.90
2022-10-06T06:22:36.414Z,1.80
2022-10-06T06:25:06.197Z,1.85
2022-10-06T06:27:35.648Z,1.88
2022-10-06T06:30:04.462Z,2.17
2022-10-06T06:32:32.365Z,2.22
2022-10-06T06:35:00.477Z,1.55
2022-10-06T06:37:31.369Z,1.70
2022-10-06T06:39:59.545Z,1.58
2022-10-06T06:42:27.772Z,2.08
2022-10-06T06:45:02.272Z,1.73
2022-10-06T06:47:34.940Z,2.25
2022-10-06T06:50:10.187Z,1.80
2022-10-06T06:52:39.206Z,1.45
2022-10-06T06:55:09.383Z,2.40
2022-10-06T06:57:37.492Z,1.85
2022-10-06T07:00:08.382Z,1.90
2022-10-06T07:02:38.053Z,1.60
2022-10-06T07:05:06.178Z,1.10
2022-10-06T07:07:33.784Z,1.20
2022-10-06T07:10:01.922Z,2.05
2022-10-06T07:12:32.695Z,1.88
2022-10-06T07:15:18.482Z,1.92
2022-10-06T07:18:09.223Z,2.05
2022-10-06T07:20:54.786Z,2.13
2022-10-06T07:23:41.100Z,2.10
2022-10-06T07:26:13.342Z,2.13
2022-10-06T07:28:42.341Z,1.67
2022-10-06T07:31:10.742Z,1.65
2022-10-06T07:33:41.824Z,2.15
2022-10-06T07:36:11.125Z,1.70
2022-10-06T07:38:41.494Z,1.67
2022-10-06T07:41:24.657Z,1.75
2022-10-06T07:43:58.131Z,1.67
2022-10-06T07:46:28.462Z,1.95
2022-10-06T07:49:19.185Z,1.48
2022-10-06T07:51:49.019Z,1.42
2022-10-06T07:54:17.775Z,1.60
2022-10-06T07:56:48.172Z,1.10
2022-10-06T07:59:15.771Z,1.50
2022-10-06T08:01:44.554Z,0.35
2022-10-06T08:04:12.224Z,0.40
2022-10-06T08:06:41.932Z,1.00
2022-10-06T08:09:09.643Z,1.48
2022-10-06T08:11:37.195Z,1.98
2022-10-06T08:14:04.735Z,1.60
2022-10-06T08:16:32.427Z,1.50
2022-10-06T08:19:00.289Z,1.30
2022-10-06T08:21:29.634Z,1.90
2022-10-06T08:23:59.354Z,1.52
2022-10-06T08:26:27.955Z,1.70
2022-10-06T08:28:57.606Z,1.70
2022-10-06T08:31:25.434Z,1.90
2022-10-06T08:33:54.881Z,2.15
2022-10-06T08:36:24.118Z,1.92
2022-10-06T08:38:54.659Z,0.65
2022-10-06T08:41:24.782Z,1.40
2022-10-06T08:43:59.213Z,1.50
2022-10-06T08:46:29.233Z,1.30
2022-10-06T08:48:58.421Z,1.10
2022-10-06T08:51:31.184Z,1.27
2022-10-06T08:54:03.155Z,1.67
2022-10-06T08:56:33.477Z,1.17
2022-10-06T08:59:04.100Z,2.25
2022-10-06T09:01:33.944Z,1.13
2022-10-06T09:04:02.239Z,0.95
2022-10-06T09:06:36.160Z,1.00
2022-10-06T09:09:07.161Z,2.00
2022-10-06T09:11:46.452Z,0.85
2022-10-06T09:14:16.277Z,1.10
2022-10-06T09:16:47.353Z,1.50
2022-10-06T09:19:16.199Z,1.33
2022-10-06T09:21:45.758Z,1.25
2022-10-06T09:24:15.288Z,1.02
2022-10-06T09:26:45.973Z,1.25
2022-10-06T09:29:13.971Z,1.33
2022-10-06T09:31:43.143Z,1.15
2022-10-06T09:34:15.113Z,2.30
2022-10-06T09:37:01.321Z,1.63
2022-10-06T09:39:33.226Z,1.30
2022-10-06T09:42:07.556Z,0.75
2022-10-06T09:44:42.178Z,1.48
2022-10-06T09:47:23.583Z,1.38
2022-10-06T09:50:03.731Z,0.40
2022-10-06T09:52:31.377Z,1.08
2022-10-06T09:55:07.080Z,1.40
2022-10-06T09:57:37.313Z,0.75
2022-10-06T10:00:05.675Z,1.10
2022-10-06T10:02:36.695Z,1.27
2022-10-06T10:05:07.032Z,0.77
2022-10-06T10:07:36.017Z,0.52
2022-10-06T10:10:19.054Z,0.70
2022-10-06T10:12:51.520Z,1.40
2022-10-06T10:15:26.747Z,1.25
2022-10-06T10:17:55.684Z,1.10
2022-10-06T10:20:28.107Z,1.00
2022-10-06T10:22:56.570Z,0.95
2022-10-06T10:25:40.421Z,1.10
2022-10-06T10:28:14.702Z,1.02
2022-10-06T10:30:47.061Z,0.90
2022-10-06T10:33:16.860Z,0.85
2022-10-06T10:35:46.442Z,1.08
2022-10-06T10:38:18.606Z,1.00
2022-10-06T10:40:48.849Z,1.20
2022-10-06T10:43:24.173Z,0.80
2022-10-06T10:45:52.704Z,1.10
2022-10-06T10:48:22.794Z,1.42
2022-10-06T10:50:51.802Z,1.05
2022-10-06T10:53:20.885Z,1.38
2022-10-06T10:55:49.022Z,0.60
2022-10-06T10:58:20.267Z,0.73
2022-10-06T11:00:50.961Z,1.02
2022-10-06T11:03:18.658Z,0.25
2022-10-06T11:06:01.110Z,1.00
2022-10-06T11:08:31.746Z,0.90
2022-10-06T11:11:01.227Z,1.40
2022-10-06T11:13:31.126Z,0.73
2022-10-06T11:16:12.022Z,1.20
2022-10-06T11:18:45.248Z,0.98
2022-10-06T11:21:14.167Z,1.10
2022-10-06T11:23:48.012Z,0.90
2022-10-06T11:26:24.579Z,0.98
2022-10-06T11:28:55.999Z,1.33
2022-10-06T11:31:31.593Z,1.20
2022-10-06T11:34:00.767Z,0.98
2022-10-06T11:36:34.528Z,1.30
2022-10-06T11:39:03.973Z,0.55
2022-10-06T11:41:35.487Z,1.05
2022-10-06T11:44:05.199Z,1.02
2022-10-06T11:46:40.097Z,0.20
2022-10-06T11:49:27.439Z,0.98
2022-10-06T11:51:59.116Z,0.22
2022-10-06T11:54:38.432Z,1.05
2022-10-06T11:57:31.348Z,1.10
2022-10-06T12:00:20.716Z,1.38
2022-10-06T12:02:49.738Z,0.90
2022-10-06T12:05:55.875Z,0.70
2022-10-06T12:08:19.255Z,0.50
2022-10-06T12:10:50.440Z,0.93
2022-10-06T12:14:26.563Z,0.70
2022-10-06T12:17:06.047Z,0.90
2022-10-06T12:19:16.806Z,0.88
2022-10-06T12:21:48.505Z,0.17
2022-10-06T12:24:21.781Z,0.57
2022-10-06T12:26:54.001Z,0.95
2022-10-06T12:29:42.403Z,0.80
2022-10-06T12:32:19.912Z,0.50
2022-10-06T12:34:58.242Z,0.40
2022-10-06T12:37:51.550Z,0.90
2022-10-06T12:40:40.324Z,0.40
2022-10-06T12:43:11.604Z,0.65
2022-10-06T12:45:45.693Z,0.90
2022-10-06T12:48:16.081Z,0.55
2022-10-06T12:50:45.604Z,0.70
2022-10-06T12:53:17.197Z,0.60
2022-10-06T12:55:49.120Z,0.32
2022-10-06T12:58:17.865Z,0.75
2022-10-06T13:00:45.794Z,0.55
2022-10-06T13:03:18.387Z,0.50
2022-10-06T13:05:52.019Z,0.70
2022-10-06T13:08:22.479Z,0.60
2022-10-06T13:10:50.110Z,0.90
2022-10-06T13:13:24.105Z,0.80
2022-10-06T13:15:55.693Z,0.90
2022-10-06T13:18:24.346Z,0.22
2022-10-06T13:20:53.703Z,0.63
2022-10-06T13:23:25.756Z,0.95
2022-10-06T13:25:58.309Z,0.50
2022-10-06T13:28:28.256Z,0.68
2022-10-06T13:30:57.111Z,0.50
2022-10-06T13:33:26.345Z,0.60
2022-10-06T13:35:55.691Z,0.32
2022-10-06T13:38:23.337Z,0.70
2022-10-06T13:41:04.008Z,0.17
2022-10-06T13:43:34.139Z,0.20
2022-10-06T13:46:07.806Z,0.50
2022-10-06T13:48:35.577Z,0.50
2022-10-06T13:51:05.024Z,0.70
2022-10-06T13:53:33.488Z,0.90
2022-10-06T13:56:01.293Z,0.47
2022-10-06T13:58:30.049Z,0.40
2022-10-06T14:01:00.427Z,0.50
2022-10-06T14:03:33.706Z,0.60
2022-10-06T14:06:12.685Z,0.70
2022-10-06T14:08:40.391Z,0.52
2022-10-06T14:11:08.874Z,1.30
2022-10-06T14:13:40.979Z,0.35
2022-10-06T14:16:09.485Z,0.80
2022-10-06T14:18:39.656Z,1.17
2022-10-06T14:21:28.310Z,0.70
2022-10-06T14:23:57.548Z,0.40
2022-10-06T14:26:25.982Z,0.90
2022-10-06T14:28:54.210Z,0.55
2022-10-06T14:31:22.439Z,0.88
2022-10-06T14:33:52.596Z,0.75
2022-10-06T14:36:21.933Z,1.10
2022-10-06T14:38:50.407Z,1.05
2022-10-06T14:41:20.345Z,0.22
2022-10-06T14:43:48.710Z,0.70
2022-10-06T14:46:16.344Z,0.90
2022-10-06T14:48:43.964Z,0.73
2022-10-06T14:51:11.708Z,0.70
2022-10-06T14:53:40.296Z,0.70
2022-10-06T14:56:09.098Z,0.93
2022-10-06T14:58:43.764Z,0.98
2022-10-06T15:01:13.020Z,0.77
2022-10-06T15:03:42.660Z,0.90
2022-10-06T15:06:30.673Z,1.33
2022-10-06T15:09:00.258Z,0.65
2022-10-06T15:11:29.354Z,0.80
2022-10-06T15:13:59.084Z,0.63
2022-10-06T15:16:27.126Z,1.00
2022-10-06T15:18:54.784Z,0.80
2022-10-06T15:21:23.765Z,1.33
2022-10-06T15:23:55.980Z,0.77
2022-10-06T15:26:40.910Z,0.93
2022-10-06T15:29:09.878Z,0.80
2022-10-06T15:31:38.255Z,1.30
2022-10-06T15:34:06.905Z,0.90
2022-10-06T15:36:36.255Z,1.08
2022-10-06T15:39:06.120Z,0.90
2022-10-06T15:41:34.493Z,0.95
2022-10-06T15:44:02.311Z,1.02
2022-10-06T15:46:31.903Z,0.68
2022-10-06T15:49:00.896Z,1.27
2022-10-06T15:51:29.051Z,0.65
2022-10-06T15:53:57.840Z,1.05
2022-10-06T15:56:25.966Z,1.30
2022-10-06T15:58:53.512Z,1.20
2022-10-06T16:01:28.345Z,1.05
2022-10-06T16:03:58.968Z,1.00
2022-10-06T16:06:41.265Z,1.10
2022-10-06T16:09:09.554Z,1.50
2022-10-06T16:11:37.238Z,0.95
2022-10-06T16:14:04.951Z,1.20
2022-10-06T16:16:32.782Z,0.90
2022-10-06T16:19:02.575Z,1.20
2022-10-06T16:21:30.991Z,1.40
2022-10-06T16:23:58.822Z,1.13
2022-10-06T16:26:26.670Z,1.40
2022-10-06T16:28:54.360Z,1.33
2022-10-06T16:31:22.203Z,1.42
2022-10-06T16:33:50.148Z,1.08
2022-10-06T16:36:19.277Z,1.20
2022-10-06T16:38:49.777Z,1.42
2022-10-06T16:41:17.524Z,1.05
2022-10-06T16:43:46.065Z,1.20
2022-10-06T16:46:14.608Z,1.50
2022-10-06T16:48:43.125Z,1.35
2022-10-06T16:51:11.888Z,1.60
2022-10-06T16:53:41.855Z,1.27
2022-10-06T16:56:10.646Z,1.52
2022-10-06T16:58:42.057Z,1.30
2022-10-06T17:01:10.118Z,1.48
2022-10-06T17:03:38.120Z,1.50
2022-10-06T17:06:07.176Z,1.58
2022-10-06T17:08:34.980Z,1.60
2022-10-06T17:11:05.591Z,2.33
2022-10-06T17:13:33.435Z,2.47
2022-10-06T17:16:02.302Z,2.08
2022-10-06T17:18:30.004Z,1.55
2022-10-06T17:20:58.335Z,2.00
2022-10-06T17:23:26.172Z,1.70
2022-10-06T17:26:05.980Z,2.95
2022-10-06T17:28:34.224Z,2.47
2022-10-06T17:31:01.893Z,3.03
2022-10-06T17:33:33.952Z,2.80
2022-10-06T17:36:05.593Z,2.80
2022-10-06T17:38:33.716Z,2.25
2022-10-06T17:41:06.721Z,2.08
2022-10-06T17:43:43.008Z,2.47
2022-10-06T17:46:13.333Z,2.20
2022-10-06T17:48:42.845Z,2.40
2022-10-06T17:51:11.098Z,3.13
2022-10-06T17:53:42.446Z,3.03
2022-10-06T17:56:11.272Z,3.72
2022-10-06T17:58:39.626Z,4.57
2022-10-06T18:01:09.621Z,2.90
2022-10-06T18:03:38.252Z,2.85
2022-10-06T18:06:06.521Z,2.90
2022-10-06T18:08:34.362Z,2.45
2022-10-06T18:11:19.749Z,2.83
2022-10-06T18:13:49.473Z,2.33
2022-10-06T18:16:20.206Z,2.72
2022-10-06T18:18:48.840Z,2.80
2022-10-06T18:21:17.195Z,3.00
2022-10-06T18:23:44.954Z,3.10
2022-10-06T18:26:14.122Z,3.55
2022-10-06T18:28:41.709Z,3.95
2022-10-06T18:31:09.331Z,4.43
2022-10-06T18:36:10.447Z,3.50
2022-10-06T18:36:26.032Z,3.38
2022-10-06T18:38:55.549Z,3.78
2022-10-06T18:41:25.048Z,3.75
2022-10-06T18:43:52.601Z,3.70
2022-10-06T18:46:37.615Z,4.00
2022-10-06T18:49:10.463Z,3.60
2022-10-06T18:51:38.709Z,3.67
2022-10-06T18:54:08.104Z,3.55
2022-10-06T18:56:36.498Z,3.28
2022-10-06T18:59:05.472Z,3.17
2022-10-06T19:01:33.424Z,2.50
2022-10-06T19:04:04.659Z,3.22
2022-10-06T19:06:33.914Z,2.92
2022-10-06T19:09:01.854Z,2.97
2022-10-06T19:11:48.768Z,3.05
2022-10-06T19:14:18.806Z,3.22
2022-10-06T19:16:46.951Z,2.90
2022-10-06T19:19:15.521Z,2.78
2022-10-06T19:21:45.946Z,2.85
2022-10-06T19:24:15.278Z,2.75
2022-10-06T19:26:45.897Z,2.80
2022-10-06T19:29:14.469Z,3.03
2022-10-06T19:31:43.138Z,2.63
2022-10-06T19:34:12.757Z,2.78
2022-10-06T19:36:40.844Z,2.53
2022-10-06T19:39:11.095Z,2.80
2022-10-06T19:41:56.603Z,2.25
2022-10-06T19:44:24.234Z,2.65
2022-10-06T19:46:52.105Z,2.50
2022-10-06T19:49:19.700Z,2.33
2022-10-06T19:51:49.445Z,2.60
2022-10-06T19:54:19.617Z,3.00
2022-10-06T19:56:47.194Z,2.67
2022-10-06T19:59:16.041Z,2.63
2022-10-06T20:01:44.082Z,2.95
2022-10-06T20:04:12.605Z,3.58
2022-10-06T20:06:41.404Z,5.65
2022-10-06T20:09:10.438Z,3.80
2022-10-06T20:11:40.641Z,2.97
2022-10-06T20:14:11.505Z,2.72
2022-10-06T20:16:41.674Z,3.13
2022-10-06T20:19:10.759Z,3.40
2022-10-06T20:21:39.901Z,2.65
2022-10-06T20:24:08.676Z,2.80
2022-10-06T20:26:38.332Z,2.75
2022-10-06T20:29:08.500Z,3.13
2022-10-06T20:31:37.245Z,2.88
2022-10-06T20:34:05.792Z,2.63
2022-10-06T20:36:34.748Z,2.63
2022-10-06T20:39:19.906Z,2.63
2022-10-06T20:41:48.329Z,2.97
2022-10-06T20:44:17.346Z,2.80
2022-10-06T20:46:44.982Z,3.58
2022-10-06T20:49:14.907Z,3.38
2022-10-06T20:51:46.484Z,4.25
2022-10-06T20:54:16.075Z,3.35
2022-10-06T20:56:43.913Z,2.50
2022-10-06T20:59:12.585Z,2.70
2022-10-06T21:01:41.549Z,3.22
2022-10-06T21:04:09.867Z,2.30
2022-10-06T21:06:38.801Z,3.38
2022-10-06T21:09:07.051Z,3.92
2022-10-06T21:11:35.012Z,2.85
2022-10-06T21:14:02.700Z,2.92
2022-10-06T21:16:32.102Z,2.65
2022-10-06T21:19:03.510Z,3.15
2022-10-06T21:21:31.171Z,3.20
2022-10-06T21:23:58.724Z,2.92
2022-10-06T21:26:26.822Z,2.85
2022-10-06T21:28:54.518Z,2.58
2022-10-06T21:31:23.151Z,2.85
2022-10-06T21:33:51.648Z,2.67
2022-10-06T21:36:21.333Z,2.75
2022-10-06T21:38:49.829Z,3.20
2022-10-06T21:41:29.969Z,3.55
2022-10-06T21:43:58.961Z,3.13
2022-10-06T21:46:28.992Z,2.88
2022-10-06T21:48:57.506Z,2.70
2022-10-06T21:51:27.499Z,2.50
2022-10-06T21:53:56.730Z,2.28
2022-10-06T21:56:24.401Z,2.70
2022-10-06T21:58:52.900Z,2.35
2022-10-06T22:01:21.246Z,2.50
2022-10-06T22:03:48.885Z,2.47
2022-10-06T22:06:19.572Z,2.22
2022-10-06T22:08:48.720Z,2.88
2022-10-06T22:11:17.357Z,2.67
2022-10-06T22:13:45.750Z,2.97
2022-10-06T22:16:14.114Z,2.50
2022-10-06T22:18:42.241Z,2.90
2022-10-06T22:21:14.028Z,2.38
2022-10-06T22:23:42.463Z,2.22
2022-10-06T22:26:11.823Z,2.40
2022-10-06T22:28:39.743Z,2.33
2022-10-06T22:31:08.337Z,2.78
2022-10-06T22:33:36.589Z,2.85
2022-10-06T22:36:04.217Z,2.17
2022-10-06T22:38:31.820Z,3.10
2022-10-06T22:41:02.724Z,2.35
2022-10-06T22:43:31.666Z,2.47
2022-10-06T22:45:59.219Z,2.47
2022-10-06T22:48:27.081Z,2.83
2022-10-06T22:50:54.646Z,2.53
2022-10-06T22:53:23.350Z,2.10
2022-10-06T22:55:51.244Z,2.25
2022-10-06T22:58:19.386Z,2.47
2022-10-06T23:00:48.345Z,2.22
2022-10-06T23:03:16.038Z,2.30
2022-10-06T23:05:43.698Z,2.45
2022-10-06T23:08:11.243Z,2.33
2022-10-06T23:10:38.833Z,2.20
2022-10-06T23:13:06.367Z,3.03
2022-10-06T23:15:33.953Z,2.22
2022-10-06T23:18:03.306Z,2.50
2022-10-06T23:20:30.875Z,3.03
2022-10-06T23:22:58.515Z,2.38
2022-10-06T23:25:27.366Z,2.00
2022-10-06T23:27:55.068Z,2.58
2022-10-06T23:30:22.642Z,2.25
2022-10-06T23:32:50.175Z,2.70
2022-10-06T23:35:19.160Z,2.80
2022-10-06T23:37:47.034Z,2.80
2022-10-06T23:40:14.737Z,2.10
2022-10-06T23:42:42.279Z,3.10
2022-10-06T23:45:10.359Z,2.10
2022-10-06T23:47:37.945Z,2.22
2022-10-06T23:50:05.907Z,2.45
2022-10-06T23:52:34.855Z,1.88
2022-10-06T23:55:02.491Z,2.05
2022-10-06T23:57:30.091Z,1.85
2022-10-06T23:59:57.671Z,2.17
